sensor_id;sensor_type;location;lat;lon;timestamp;temperature;humidity
30999;DHT22;20549;50.042;8.968;2023-07-13T00:01:25;22.20;48.30
30999;DHT22;20549;50.042;8.968;2023-07-13T00:03:51;22.10;48.30
30999;DHT22;20549;50.042;8.968;2023-07-13T00:06:18;22.10;48.50
30999;DHT22;20549;50.042;8.968;2023-07-13T00:08:44;22.00;48.60
30999;DHT22;20549;50.042;8.968;2023-07-13T00:11:11;22.00;48.60
30999;DHT22;20549;50.042;8.968;2023-07-13T00:13:38;22.00;48.80
30999;DHT22;20549;50.042;8.968;2023-07-13T00:16:04;21.90;48.90
30999;DHT22;20549;50.042;8.968;2023-07-13T00:18:31;21.90;49.10
30999;DHT22;20549;50.042;8.968;2023-07-13T00:20:57;21.90;49.20
30999;DHT22;20549;50.042;8.968;2023-07-13T00:23:26;21.90;49.30
30999;DHT22;20549;50.042;8.968;2023-07-13T00:25:53;21.90;49.30
30999;DHT22;20549;50.042;8.968;2023-07-13T00:28:20;21.90;49.40
30999;DHT22;20549;50.042;8.968;2023-07-13T00:30:46;21.90;49.50
30999;DHT22;20549;50.042;8.968;2023-07-13T00:33:13;21.90;49.50
30999;DHT22;20549;50.042;8.968;2023-07-13T00:35:39;21.90;49.50
30999;DHT22;20549;50.042;8.968;2023-07-13T00:38:06;21.90;49.60
30999;DHT22;20549;50.042;8.968;2023-07-13T00:40:32;21.90;49.60
30999;DHT22;20549;50.042;8.968;2023-07-13T00:42:59;21.90;50.20
30999;DHT22;20549;50.042;8.968;2023-07-13T00:47:53;21.80;49.70
30999;DHT22;20549;50.042;8.968;2023-07-13T00:50:19;21.90;49.80
30999;DHT22;20549;50.042;8.968;2023-07-13T00:52:46;21.90;49.70
30999;DHT22;20549;50.042;8.968;2023-07-13T00:55:12;21.80;49.70
30999;DHT22;20549;50.042;8.968;2023-07-13T00:57:39;21.80;49.70
30999;DHT22;20549;50.042;8.968;2023-07-13T01:00:05;21.80;49.60
30999;DHT22;20549;50.042;8.968;2023-07-13T01:02:32;21.80;49.60
30999;DHT22;20549;50.042;8.968;2023-07-13T01:04:58;21.70;49.60
30999;DHT22;20549;50.042;8.968;2023-07-13T01:07:25;21.70;49.70
30999;DHT22;20549;50.042;8.968;2023-07-13T01:09:52;21.70;49.70
30999;DHT22;20549;50.042;8.968;2023-07-13T01:12:18;21.70;49.80
30999;DHT22;20549;50.042;8.968;2023-07-13T01:14:45;21.60;49.80
30999;DHT22;20549;50.042;8.968;2023-07-13T01:17:11;21.60;49.80
30999;DHT22;20549;50.042;8.968;2023-07-13T01:19:39;21.60;50.00
30999;DHT22;20549;50.042;8.968;2023-07-13T01:22:06;21.60;50.10
30999;DHT22;20549;50.042;8.968;2023-07-13T01:24:31;21.60;50.10
30999;DHT22;20549;50.042;8.968;2023-07-13T01:26:58;21.50;50.20
30999;DHT22;20549;50.042;8.968;2023-07-13T01:29:24;21.50;50.30
30999;DHT22;20549;50.042;8.968;2023-07-13T01:31:51;21.40;50.30
30999;DHT22;20549;50.042;8.968;2023-07-13T01:34:18;21.40;50.30
30999;DHT22;20549;50.042;8.968;2023-07-13T01:36:44;21.40;50.40
30999;DHT22;20549;50.042;8.968;2023-07-13T01:39:11;21.30;50.50
30999;DHT22;20549;50.042;8.968;2023-07-13T01:41:37;21.20;50.50
30999;DHT22;20549;50.042;8.968;2023-07-13T01:44:04;21.20;50.60
30999;DHT22;20549;50.042;8.968;2023-07-13T01:46:30;21.10;50.70
30999;DHT22;20549;50.042;8.968;2023-07-13T01:48:57;21.00;50.80
30999;DHT22;20549;50.042;8.968;2023-07-13T01:51:24;20.90;51.00
30999;DHT22;20549;50.042;8.968;2023-07-13T01:53:50;20.80;51.20
30999;DHT22;20549;50.042;8.968;2023-07-13T01:56:17;20.70;51.30
30999;DHT22;20549;50.042;8.968;2023-07-13T01:58:44;20.60;51.40
30999;DHT22;20549;50.042;8.968;2023-07-13T02:01:10;20.60;51.60
30999;DHT22;20549;50.042;8.968;2023-07-13T02:03:37;20.50;51.70
30999;DHT22;20549;50.042;8.968;2023-07-13T02:06:03;20.40;52.50
30999;DHT22;20549;50.042;8.968;2023-07-13T02:08:30;20.40;52.00
30999;DHT22;20549;50.042;8.968;2023-07-13T02:10:56;20.30;52.10
30999;DHT22;20549;50.042;8.968;2023-07-13T02:13:23;20.30;52.20
30999;DHT22;20549;50.042;8.968;2023-07-13T02:15:52;20.30;52.30
30999;DHT22;20549;50.042;8.968;2023-07-13T02:18:19;20.20;52.40
30999;DHT22;20549;50.042;8.968;2023-07-13T02:20:46;20.20;52.50
30999;DHT22;20549;50.042;8.968;2023-07-13T02:23:12;20.10;52.50
30999;DHT22;20549;50.042;8.968;2023-07-13T02:25:39;20.10;52.60
30999;DHT22;20549;50.042;8.968;2023-07-13T02:28:05;20.00;52.80
30999;DHT22;20549;50.042;8.968;2023-07-13T02:30:34;19.90;53.00
30999;DHT22;20549;50.042;8.968;2023-07-13T02:32:59;19.80;53.30
30999;DHT22;20549;50.042;8.968;2023-07-13T02:35:25;19.70;53.30
30999;DHT22;20549;50.042;8.968;2023-07-13T02:37:52;19.70;53.40
30999;DHT22;20549;50.042;8.968;2023-07-13T02:40:18;19.50;53.50
30999;DHT22;20549;50.042;8.968;2023-07-13T02:42:45;19.50;53.80
30999;DHT22;20549;50.042;8.968;2023-07-13T02:45:12;19.40;54.00
30999;DHT22;20549;50.042;8.968;2023-07-13T02:47:39;19.30;54.20
30999;DHT22;20549;50.042;8.968;2023-07-13T02:50:05;19.30;54.30
30999;DHT22;20549;50.042;8.968;2023-07-13T02:52:31;19.30;54.50
30999;DHT22;20549;50.042;8.968;2023-07-13T02:54:58;19.30;54.70
30999;DHT22;20549;50.042;8.968;2023-07-13T02:57:25;19.30;54.90
30999;DHT22;20549;50.042;8.968;2023-07-13T02:59:51;19.30;55.00
30999;DHT22;20549;50.042;8.968;2023-07-13T03:02:18;19.30;55.00
30999;DHT22;20549;50.042;8.968;2023-07-13T03:04:44;19.30;55.00
30999;DHT22;20549;50.042;8.968;2023-07-13T03:07:11;19.30;55.10
30999;DHT22;20549;50.042;8.968;2023-07-13T03:09:38;19.30;55.10
30999;DHT22;20549;50.042;8.968;2023-07-13T03:12:04;19.20;55.20
30999;DHT22;20549;50.042;8.968;2023-07-13T03:14:31;19.20;55.20
30999;DHT22;20549;50.042;8.968;2023-07-13T03:16:57;19.10;55.20
30999;DHT22;20549;50.042;8.968;2023-07-13T03:19:24;19.10;55.30
30999;DHT22;20549;50.042;8.968;2023-07-13T03:21:50;19.00;55.40
30999;DHT22;20549;50.042;8.968;2023-07-13T03:24:17;18.90;55.60
30999;DHT22;20549;50.042;8.968;2023-07-13T03:26:44;18.90;55.70
30999;DHT22;20549;50.042;8.968;2023-07-13T03:29:10;18.80;55.80
30999;DHT22;20549;50.042;8.968;2023-07-13T03:31:37;18.70;56.00
30999;DHT22;20549;50.042;8.968;2023-07-13T03:34:03;18.70;56.10
30999;DHT22;20549;50.042;8.968;2023-07-13T03:36:30;18.60;56.00
30999;DHT22;20549;50.042;8.968;2023-07-13T03:38:57;18.60;56.20
30999;DHT22;20549;50.042;8.968;2023-07-13T03:41:23;18.50;56.20
30999;DHT22;20549;50.042;8.968;2023-07-13T03:43:50;18.50;56.30
30999;DHT22;20549;50.042;8.968;2023-07-13T03:46:16;18.40;56.50
30999;DHT22;20549;50.042;8.968;2023-07-13T03:48:44;18.40;56.70
30999;DHT22;20549;50.042;8.968;2023-07-13T03:51:10;18.30;56.90
30999;DHT22;20549;50.042;8.968;2023-07-13T03:53:40;18.30;57.10
30999;DHT22;20549;50.042;8.968;2023-07-13T03:56:06;18.20;57.20
30999;DHT22;20549;50.042;8.968;2023-07-13T03:58:34;18.20;57.40
30999;DHT22;20549;50.042;8.968;2023-07-13T04:00:59;18.10;57.50
30999;DHT22;20549;50.042;8.968;2023-07-13T04:03:26;18.10;57.70
30999;DHT22;20549;50.042;8.968;2023-07-13T04:05:52;18.00;57.80
30999;DHT22;20549;50.042;8.968;2023-07-13T04:08:19;18.00;58.00
30999;DHT22;20549;50.042;8.968;2023-07-13T04:10:45;18.00;58.00
30999;DHT22;20549;50.042;8.968;2023-07-13T04:13:12;18.00;58.20
30999;DHT22;20549;50.042;8.968;2023-07-13T04:15:38;18.00;58.30
30999;DHT22;20549;50.042;8.968;2023-07-13T04:18:05;18.00;58.40
30999;DHT22;20549;50.042;8.968;2023-07-13T04:20:31;18.00;58.50
30999;DHT22;20549;50.042;8.968;2023-07-13T04:22:58;18.00;58.60
30999;DHT22;20549;50.042;8.968;2023-07-13T04:25:25;18.00;58.80
30999;DHT22;20549;50.042;8.968;2023-07-13T04:27:52;18.00;58.80
30999;DHT22;20549;50.042;8.968;2023-07-13T04:30:18;18.10;58.90
30999;DHT22;20549;50.042;8.968;2023-07-13T04:32:44;18.10;58.90
30999;DHT22;20549;50.042;8.968;2023-07-13T04:35:11;18.10;59.00
30999;DHT22;20549;50.042;8.968;2023-07-13T04:37:38;18.20;59.10
30999;DHT22;20549;50.042;8.968;2023-07-13T04:40:04;18.20;59.20
30999;DHT22;20549;50.042;8.968;2023-07-13T04:42:31;18.30;59.20
30999;DHT22;20549;50.042;8.968;2023-07-13T04:44:57;18.30;59.30
30999;DHT22;20549;50.042;8.968;2023-07-13T04:47:24;18.40;59.30
30999;DHT22;20549;50.042;8.968;2023-07-13T04:49:51;18.40;59.40
30999;DHT22;20549;50.042;8.968;2023-07-13T04:52:17;18.50;59.40
30999;DHT22;20549;50.042;8.968;2023-07-13T04:54:44;18.60;59.40
30999;DHT22;20549;50.042;8.968;2023-07-13T04:57:10;18.70;59.40
30999;DHT22;20549;50.042;8.968;2023-07-13T04:59:37;18.80;59.50
30999;DHT22;20549;50.042;8.968;2023-07-13T05:02:03;18.90;59.60
30999;DHT22;20549;50.042;8.968;2023-07-13T05:04:30;19.10;60.00
30999;DHT22;20549;50.042;8.968;2023-07-13T05:06:57;19.30;60.30
30999;DHT22;20549;50.042;8.968;2023-07-13T05:09:23;19.60;60.90
30999;DHT22;20549;50.042;8.968;2023-07-13T05:11:50;20.10;61.40
30999;DHT22;20549;50.042;8.968;2023-07-13T05:14:16;20.70;61.80
30999;DHT22;20549;50.042;8.968;2023-07-13T05:16:43;21.40;61.70
30999;DHT22;20549;50.042;8.968;2023-07-13T05:19:10;22.10;61.00
30999;DHT22;20549;50.042;8.968;2023-07-13T05:21:36;23.00;60.60
30999;DHT22;20549;50.042;8.968;2023-07-13T05:24:03;23.80;59.80
30999;DHT22;20549;50.042;8.968;2023-07-13T05:26:29;24.70;58.80
30999;DHT22;20549;50.042;8.968;2023-07-13T05:28:56;25.60;57.80
30999;DHT22;20549;50.042;8.968;2023-07-13T05:31:23;26.50;56.70
30999;DHT22;20549;50.042;8.968;2023-07-13T05:33:49;27.30;55.30
30999;DHT22;20549;50.042;8.968;2023-07-13T05:36:16;28.10;54.20
30999;DHT22;20549;50.042;8.968;2023-07-13T05:38:42;28.80;53.20
30999;DHT22;20549;50.042;8.968;2023-07-13T05:41:09;29.50;52.40
30999;DHT22;20549;50.042;8.968;2023-07-13T05:43:35;30.10;51.50
30999;DHT22;20549;50.042;8.968;2023-07-13T05:46:02;30.80;50.80
30999;DHT22;20549;50.042;8.968;2023-07-13T05:48:29;31.50;50.00
30999;DHT22;20549;50.042;8.968;2023-07-13T05:50:55;32.00;49.00
30999;DHT22;20549;50.042;8.968;2023-07-13T05:53:22;32.60;48.00
30999;DHT22;20549;50.042;8.968;2023-07-13T05:55:48;33.20;47.20
30999;DHT22;20549;50.042;8.968;2023-07-13T05:58:16;33.70;46.30
30999;DHT22;20549;50.042;8.968;2023-07-13T06:00:42;34.20;45.30
30999;DHT22;20549;50.042;8.968;2023-07-13T06:03:08;34.60;44.60
30999;DHT22;20549;50.042;8.968;2023-07-13T06:05:37;35.00;43.80
30999;DHT22;20549;50.042;8.968;2023-07-13T06:08:04;35.40;43.40
30999;DHT22;20549;50.042;8.968;2023-07-13T06:10:36;35.70;42.80
30999;DHT22;20549;50.042;8.968;2023-07-13T06:13:03;36.10;42.20
30999;DHT22;20549;50.042;8.968;2023-07-13T06:15:29;36.50;41.70
30999;DHT22;20549;50.042;8.968;2023-07-13T06:17:56;36.80;41.40
30999;DHT22;20549;50.042;8.968;2023-07-13T06:20:22;37.20;40.80
30999;DHT22;20549;50.042;8.968;2023-07-13T06:22:49;37.50;40.30
30999;DHT22;20549;50.042;8.968;2023-07-13T06:25:16;38.00;39.60
30999;DHT22;20549;50.042;8.968;2023-07-13T06:27:43;38.30;39.10
30999;DHT22;20549;50.042;8.968;2023-07-13T06:30:09;38.70;38.70
30999;DHT22;20549;50.042;8.968;2023-07-13T06:32:35;39.00;38.00
30999;DHT22;20549;50.042;8.968;2023-07-13T06:35:02;39.30;37.30
30999;DHT22;20549;50.042;8.968;2023-07-13T06:37:29;39.70;36.70
30999;DHT22;20549;50.042;8.968;2023-07-13T06:39:55;40.00;36.30
30999;DHT22;20549;50.042;8.968;2023-07-13T06:42:22;40.30;36.00
30999;DHT22;20549;50.042;8.968;2023-07-13T06:44:48;40.60;35.40
30999;DHT22;20549;50.042;8.968;2023-07-13T06:47:15;40.90;34.50
30999;DHT22;20549;50.042;8.968;2023-07-13T06:49:42;41.10;34.10
30999;DHT22;20549;50.042;8.968;2023-07-13T06:52:08;41.30;33.70
30999;DHT22;20549;50.042;8.968;2023-07-13T06:54:35;41.50;33.30
30999;DHT22;20549;50.042;8.968;2023-07-13T06:57:01;41.70;33.10
30999;DHT22;20549;50.042;8.968;2023-07-13T06:59:28;42.00;32.70
30999;DHT22;20549;50.042;8.968;2023-07-13T07:01:54;42.20;32.00
30999;DHT22;20549;50.042;8.968;2023-07-13T07:04:21;42.40;31.60
30999;DHT22;20549;50.042;8.968;2023-07-13T07:06:48;42.70;31.50
30999;DHT22;20549;50.042;8.968;2023-07-13T07:09:14;42.90;31.30
30999;DHT22;20549;50.042;8.968;2023-07-13T07:11:41;43.20;31.00
30999;DHT22;20549;50.042;8.968;2023-07-13T07:14:07;43.40;30.40
30999;DHT22;20549;50.042;8.968;2023-07-13T07:16:34;43.70;30.00
30999;DHT22;20549;50.042;8.968;2023-07-13T07:19:01;43.90;29.70
30999;DHT22;20549;50.042;8.968;2023-07-13T07:21:27;44.00;29.30
30999;DHT22;20549;50.042;8.968;2023-07-13T07:23:54;44.10;29.10
30999;DHT22;20549;50.042;8.968;2023-07-13T07:26:20;44.30;28.50
30999;DHT22;20549;50.042;8.968;2023-07-13T07:28:47;44.40;28.70
30999;DHT22;20549;50.042;8.968;2023-07-13T07:31:14;44.40;28.50
30999;DHT22;20549;50.042;8.968;2023-07-13T07:33:40;44.60;28.40
30999;DHT22;20549;50.042;8.968;2023-07-13T07:36:07;44.70;28.20
30999;DHT22;20549;50.042;8.968;2023-07-13T07:38:33;44.80;28.30
30999;DHT22;20549;50.042;8.968;2023-07-13T07:41:02;44.90;27.90
30999;DHT22;20549;50.042;8.968;2023-07-13T07:43:26;45.00;27.60
30999;DHT22;20549;50.042;8.968;2023-07-13T07:45:53;45.20;27.50
30999;DHT22;20549;50.042;8.968;2023-07-13T07:48:20;45.30;27.30
30999;DHT22;20549;50.042;8.968;2023-07-13T07:50:46;45.50;27.40
30999;DHT22;20549;50.042;8.968;2023-07-13T07:53:13;45.70;27.30
30999;DHT22;20549;50.042;8.968;2023-07-13T07:55:39;45.70;26.80
30999;DHT22;20549;50.042;8.968;2023-07-13T07:58:06;45.80;26.70
30999;DHT22;20549;50.042;8.968;2023-07-13T08:00:33;45.90;26.60
30999;DHT22;20549;50.042;8.968;2023-07-13T08:02:59;45.90;26.50
30999;DHT22;20549;50.042;8.968;2023-07-13T08:05:26;46.00;26.30
30999;DHT22;20549;50.042;8.968;2023-07-13T08:07:52;46.10;26.00
30999;DHT22;20549;50.042;8.968;2023-07-13T08:10:19;46.10;26.00
30999;DHT22;20549;50.042;8.968;2023-07-13T08:12:46;46.20;25.60
30999;DHT22;20549;50.042;8.968;2023-07-13T08:15:13;46.20;25.50
30999;DHT22;20549;50.042;8.968;2023-07-13T08:17:39;46.20;25.30
30999;DHT22;20549;50.042;8.968;2023-07-13T08:20:05;46.10;25.20
30999;DHT22;20549;50.042;8.968;2023-07-13T08:22:32;46.10;25.20
30999;DHT22;20549;50.042;8.968;2023-07-13T08:24:59;46.00;25.00
30999;DHT22;20549;50.042;8.968;2023-07-13T08:27:26;46.00;24.90
30999;DHT22;20549;50.042;8.968;2023-07-13T08:29:52;46.00;25.00
30999;DHT22;20549;50.042;8.968;2023-07-13T08:32:19;46.00;25.00
30999;DHT22;20549;50.042;8.968;2023-07-13T08:34:45;46.10;25.00
30999;DHT22;20549;50.042;8.968;2023-07-13T08:37:12;46.10;24.80
30999;DHT22;20549;50.042;8.968;2023-07-13T08:39:38;46.00;24.60
30999;DHT22;20549;50.042;8.968;2023-07-13T08:47:25;45.30;24.50
30999;DHT22;20549;50.042;8.968;2023-07-13T08:49:51;45.10;24.40
30999;DHT22;20549;50.042;8.968;2023-07-13T08:52:32;44.80;24.30
30999;DHT22;20549;50.042;8.968;2023-07-13T08:54:53;44.50;24.30
30999;DHT22;20549;50.042;8.968;2023-07-13T08:57:21;44.10;24.50
30999;DHT22;20549;50.042;8.968;2023-07-13T08:59:47;43.80;24.60
30999;DHT22;20549;50.042;8.968;2023-07-13T09:02:33;43.40;24.70
30999;DHT22;20549;50.042;8.968;2023-07-13T09:07:30;42.70;24.90
30999;DHT22;20549;50.042;8.968;2023-07-13T09:10:41;42.30;25.00
30999;DHT22;20549;50.042;8.968;2023-07-13T09:12:53;42.10;25.40
30999;DHT22;20549;50.042;8.968;2023-07-13T09:15:21;41.90;25.40
30999;DHT22;20549;50.042;8.968;2023-07-13T09:17:48;41.80;25.70
30999;DHT22;20549;50.042;8.968;2023-07-13T09:20:26;41.90;25.70
30999;DHT22;20549;50.042;8.968;2023-07-13T09:22:51;41.90;25.50
30999;DHT22;20549;50.042;8.968;2023-07-13T09:25:29;41.80;25.40
30999;DHT22;20549;50.042;8.968;2023-07-13T09:27:54;41.50;25.20
30999;DHT22;20549;50.042;8.968;2023-07-13T09:30:30;41.20;25.20
30999;DHT22;20549;50.042;8.968;2023-07-13T09:32:52;40.90;25.30
30999;DHT22;20549;50.042;8.968;2023-07-13T09:35:20;40.70;25.60
30999;DHT22;20549;50.042;8.968;2023-07-13T09:37:45;40.50;25.70
30999;DHT22;20549;50.042;8.968;2023-07-13T09:40:23;40.30;25.90
30999;DHT22;20549;50.042;8.968;2023-07-13T09:42:38;40.30;26.10
30999;DHT22;20549;50.042;8.968;2023-07-13T09:45:05;40.20;26.00
30999;DHT22;20549;50.042;8.968;2023-07-13T09:47:38;40.10;25.80
30999;DHT22;20549;50.042;8.968;2023-07-13T09:50:02;40.00;25.80
30999;DHT22;20549;50.042;8.968;2023-07-13T09:52:27;39.80;25.80
30999;DHT22;20549;50.042;8.968;2023-07-13T09:54:54;39.70;25.90
30999;DHT22;20549;50.042;8.968;2023-07-13T09:57:22;39.60;26.10
30999;DHT22;20549;50.042;8.968;2023-07-13T09:59:48;39.60;26.30
30999;DHT22;20549;50.042;8.968;2023-07-13T10:02:35;39.60;26.40
30999;DHT22;20549;50.042;8.968;2023-07-13T10:05:11;39.70;26.10
30999;DHT22;20549;50.042;8.968;2023-07-13T10:07:39;39.70;25.60
30999;DHT22;20549;50.042;8.968;2023-07-13T10:10:00;39.60;25.60
30999;DHT22;20549;50.042;8.968;2023-07-13T10:12:29;39.50;25.50
30999;DHT22;20549;50.042;8.968;2023-07-13T10:14:57;39.30;25.40
30999;DHT22;20549;50.042;8.968;2023-07-13T10:17:30;39.10;25.40
30999;DHT22;20549;50.042;8.968;2023-07-13T10:19:55;38.90;25.30
30999;DHT22;20549;50.042;8.968;2023-07-13T10:22:36;38.50;25.30
30999;DHT22;20549;50.042;8.968;2023-07-13T10:24:54;38.20;25.40
30999;DHT22;20549;50.042;8.968;2023-07-13T10:27:23;38.00;25.50
30999;DHT22;20549;50.042;8.968;2023-07-13T10:29:58;37.60;25.70
30999;DHT22;20549;50.042;8.968;2023-07-13T10:32:20;37.30;25.80
30999;DHT22;20549;50.042;8.968;2023-07-13T10:34:46;37.00;25.90
30999;DHT22;20549;50.042;8.968;2023-07-13T10:37:16;36.60;25.90
30999;DHT22;20549;50.042;8.968;2023-07-13T10:39:42;36.20;26.00
30999;DHT22;20549;50.042;8.968;2023-07-13T10:42:09;35.90;26.20
30999;DHT22;20549;50.042;8.968;2023-07-13T10:44:35;35.60;26.40
30999;DHT22;20549;50.042;8.968;2023-07-13T10:47:03;35.30;26.60
30999;DHT22;20549;50.042;8.968;2023-07-13T10:49:29;35.00;26.70
30999;DHT22;20549;50.042;8.968;2023-07-13T10:51:55;34.80;26.80
30999;DHT22;20549;50.042;8.968;2023-07-13T10:54:22;34.60;27.00
30999;DHT22;20549;50.042;8.968;2023-07-13T10:57:34;34.40;27.20
30999;DHT22;20549;50.042;8.968;2023-07-13T10:59:24;34.10;27.20
30999;DHT22;20549;50.042;8.968;2023-07-13T11:01:52;33.90;27.30
30999;DHT22;20549;50.042;8.968;2023-07-13T11:04:17;33.60;27.50
30999;DHT22;20549;50.042;8.968;2023-07-13T11:06:43;33.40;27.90
30999;DHT22;20549;50.042;8.968;2023-07-13T11:11:48;33.00;27.80
30999;DHT22;20549;50.042;8.968;2023-07-13T11:14:28;32.90;27.90
30999;DHT22;20549;50.042;8.968;2023-07-13T11:16:53;32.70;28.00
30999;DHT22;20549;50.042;8.968;2023-07-13T11:24:52;32.30;28.80
30999;DHT22;20549;50.042;8.968;2023-07-13T11:27:24;32.20;28.90
30999;DHT22;20549;50.042;8.968;2023-07-13T11:29:46;32.30;29.10
30999;DHT22;20549;50.042;8.968;2023-07-13T11:32:25;32.30;29.10
30999;DHT22;20549;50.042;8.968;2023-07-13T11:34:51;32.40;29.20
30999;DHT22;20549;50.042;8.968;2023-07-13T11:37:18;32.40;29.00
30999;DHT22;20549;50.042;8.968;2023-07-13T11:39:44;32.40;28.90
30999;DHT22;20549;50.042;8.968;2023-07-13T11:42:15;32.50;28.90
30999;DHT22;20549;50.042;8.968;2023-07-13T11:44:47;32.40;28.80
30999;DHT22;20549;50.042;8.968;2023-07-13T11:47:11;32.40;28.80
30999;DHT22;20549;50.042;8.968;2023-07-13T11:49:42;32.40;28.90
30999;DHT22;20549;50.042;8.968;2023-07-13T11:52:05;32.30;29.00
30999;DHT22;20549;50.042;8.968;2023-07-13T11:54:33;32.20;29.00
30999;DHT22;20549;50.042;8.968;2023-07-13T11:57:03;32.20;29.10
30999;DHT22;20549;50.042;8.968;2023-07-13T11:59:31;32.20;29.20
30999;DHT22;20549;50.042;8.968;2023-07-13T12:01:55;32.10;29.20
30999;DHT22;20549;50.042;8.968;2023-07-13T12:06:58;32.10;29.30
30999;DHT22;20549;50.042;8.968;2023-07-13T12:09:25;32.10;29.40
30999;DHT22;20549;50.042;8.968;2023-07-13T12:11:50;32.10;29.50
30999;DHT22;20549;50.042;8.968;2023-07-13T12:14:17;32.10;29.40
30999;DHT22;20549;50.042;8.968;2023-07-13T12:16:43;32.10;29.40
30999;DHT22;20549;50.042;8.968;2023-07-13T12:19:23;32.20;29.40
30999;DHT22;20549;50.042;8.968;2023-07-13T12:21:48;32.20;29.50
30999;DHT22;20549;50.042;8.968;2023-07-13T12:24:16;32.30;29.50
30999;DHT22;20549;50.042;8.968;2023-07-13T12:26:41;32.40;29.70
30999;DHT22;20549;50.042;8.968;2023-07-13T12:29:13;32.40;29.60
30999;DHT22;20549;50.042;8.968;2023-07-13T12:31:42;32.50;29.60
30999;DHT22;20549;50.042;8.968;2023-07-13T12:34:08;32.60;29.60
30999;DHT22;20549;50.042;8.968;2023-07-13T12:36:35;32.60;29.60
30999;DHT22;20549;50.042;8.968;2023-07-13T12:39:03;32.60;29.50
30999;DHT22;20549;50.042;8.968;2023-07-13T12:41:27;32.60;29.40
30999;DHT22;20549;50.042;8.968;2023-07-13T12:43:54;32.60;29.50
30999;DHT22;20549;50.042;8.968;2023-07-13T12:46:23;32.60;29.50
30999;DHT22;20549;50.042;8.968;2023-07-13T12:48:51;32.50;29.40
30999;DHT22;20549;50.042;8.968;2023-07-13T12:51:17;32.50;29.50
30999;DHT22;20549;50.042;8.968;2023-07-13T12:53:47;32.50;29.30
30999;DHT22;20549;50.042;8.968;2023-07-13T12:56:14;32.40;29.30
30999;DHT22;20549;50.042;8.968;2023-07-13T12:58:40;32.40;29.40
30999;DHT22;20549;50.042;8.968;2023-07-13T13:01:07;32.30;29.40
30999;DHT22;20549;50.042;8.968;2023-07-13T13:03:35;32.30;29.40
30999;DHT22;20549;50.042;8.968;2023-07-13T13:06:06;32.20;29.50
30999;DHT22;20549;50.042;8.968;2023-07-13T13:08:35;32.20;29.50
30999;DHT22;20549;50.042;8.968;2023-07-13T13:11:02;32.10;29.50
30999;DHT22;20549;50.042;8.968;2023-07-13T13:13:28;32.00;29.50
30999;DHT22;20549;50.042;8.968;2023-07-13T13:15:54;32.00;29.50
30999;DHT22;20549;50.042;8.968;2023-07-13T13:18:21;31.90;29.50
30999;DHT22;20549;50.042;8.968;2023-07-13T13:20:48;31.90;29.50
30999;DHT22;20549;50.042;8.968;2023-07-13T13:23:15;31.80;29.60
30999;DHT22;20549;50.042;8.968;2023-07-13T13:25:41;31.80;29.70
30999;DHT22;20549;50.042;8.968;2023-07-13T13:28:12;31.70;29.60
30999;DHT22;20549;50.042;8.968;2023-07-13T13:30:34;31.70;29.70
30999;DHT22;20549;50.042;8.968;2023-07-13T13:33:01;31.60;29.80
30999;DHT22;20549;50.042;8.968;2023-07-13T13:35:27;31.60;29.80
30999;DHT22;20549;50.042;8.968;2023-07-13T13:37:54;31.50;29.80
30999;DHT22;20549;50.042;8.968;2023-07-13T13:40:21;31.50;29.90
30999;DHT22;20549;50.042;8.968;2023-07-13T13:42:47;31.40;29.90
30999;DHT22;20549;50.042;8.968;2023-07-13T13:45:13;31.30;29.90
30999;DHT22;20549;50.042;8.968;2023-07-13T13:47:40;31.30;30.00
30999;DHT22;20549;50.042;8.968;2023-07-13T13:50:13;31.20;30.10
30999;DHT22;20549;50.042;8.968;2023-07-13T13:52:39;31.20;30.20
30999;DHT22;20549;50.042;8.968;2023-07-13T13:55:15;31.10;30.20
30999;DHT22;20549;50.042;8.968;2023-07-13T13:57:41;31.10;30.30
30999;DHT22;20549;50.042;8.968;2023-07-13T14:00:09;31.10;30.50
30999;DHT22;20549;50.042;8.968;2023-07-13T14:02:34;31.10;30.60
30999;DHT22;20549;50.042;8.968;2023-07-13T14:05:01;31.00;30.40
30999;DHT22;20549;50.042;8.968;2023-07-13T14:07:27;31.00;30.90
30999;DHT22;20549;50.042;8.968;2023-07-13T14:09:55;31.00;30.50
30999;DHT22;20549;50.042;8.968;2023-07-13T14:12:21;30.90;30.80
30999;DHT22;20549;50.042;8.968;2023-07-13T14:14:47;30.90;30.60
30999;DHT22;20549;50.042;8.968;2023-07-13T14:17:24;30.90;30.70
30999;DHT22;20549;50.042;8.968;2023-07-13T14:19:46;30.80;30.70
30999;DHT22;20549;50.042;8.968;2023-07-13T14:22:13;30.80;30.80
30999;DHT22;20549;50.042;8.968;2023-07-13T14:24:39;30.80;30.90
30999;DHT22;20549;50.042;8.968;2023-07-13T14:27:07;30.80;31.00
30999;DHT22;20549;50.042;8.968;2023-07-13T14:29:32;30.80;31.00
30999;DHT22;20549;50.042;8.968;2023-07-13T14:31:59;30.90;31.20
30999;DHT22;20549;50.042;8.968;2023-07-13T14:34:25;30.90;31.20
30999;DHT22;20549;50.042;8.968;2023-07-13T14:36:52;31.00;31.30
30999;DHT22;20549;50.042;8.968;2023-07-13T14:39:20;31.10;31.40
30999;DHT22;20549;50.042;8.968;2023-07-13T14:41:45;31.10;31.30
30999;DHT22;20549;50.042;8.968;2023-07-13T14:44:15;31.20;31.30
30999;DHT22;20549;50.042;8.968;2023-07-13T14:46:42;31.30;31.30
30999;DHT22;20549;50.042;8.968;2023-07-13T14:51:40;31.40;31.10
30999;DHT22;20549;50.042;8.968;2023-07-13T14:54:08;31.40;31.00
30999;DHT22;20549;50.042;8.968;2023-07-13T14:56:33;31.40;31.00
30999;DHT22;20549;50.042;8.968;2023-07-13T14:59:00;31.50;30.90
30999;DHT22;20549;50.042;8.968;2023-07-13T15:01:26;31.50;30.90
30999;DHT22;20549;50.042;8.968;2023-07-13T15:03:53;31.50;31.10
30999;DHT22;20549;50.042;8.968;2023-07-13T15:06:20;31.50;31.00
30999;DHT22;20549;50.042;8.968;2023-07-13T15:08:46;31.50;30.90
30999;DHT22;20549;50.042;8.968;2023-07-13T15:11:14;31.50;30.80
30999;DHT22;20549;50.042;8.968;2023-07-13T15:13:41;31.50;30.80
30999;DHT22;20549;50.042;8.968;2023-07-13T15:16:18;31.50;30.70
30999;DHT22;20549;50.042;8.968;2023-07-13T15:18:43;31.50;30.60
30999;DHT22;20549;50.042;8.968;2023-07-13T15:21:16;31.50;30.60
30999;DHT22;20549;50.042;8.968;2023-07-13T15:23:41;31.40;30.70
30999;DHT22;20549;50.042;8.968;2023-07-13T15:26:11;31.40;30.60
30999;DHT22;20549;50.042;8.968;2023-07-13T15:28:34;31.30;30.60
30999;DHT22;20549;50.042;8.968;2023-07-13T15:31:01;31.30;30.70
30999;DHT22;20549;50.042;8.968;2023-07-13T15:33:28;31.20;30.90
30999;DHT22;20549;50.042;8.968;2023-07-13T15:35:55;31.20;31.10
30999;DHT22;20549;50.042;8.968;2023-07-13T15:38:25;31.10;31.10
30999;DHT22;20549;50.042;8.968;2023-07-13T15:40:50;31.10;31.30
30999;DHT22;20549;50.042;8.968;2023-07-13T15:43:17;31.00;31.30
30999;DHT22;20549;50.042;8.968;2023-07-13T15:45:43;31.00;31.40
30999;DHT22;20549;50.042;8.968;2023-07-13T15:48:15;31.00;31.50
30999;DHT22;20549;50.042;8.968;2023-07-13T15:50:42;31.00;31.60
30999;DHT22;20549;50.042;8.968;2023-07-13T15:53:08;30.90;31.60